sensor_id;sensor_type;location;lat;lon;timestamp;P1;durP1;ratioP1;P2;durP2;ratioP2
34497;SDS011;20744;50.938;7.286;2024-01-25T00:00:32;47.42;;;8.10;;
34497;SDS011;20744;50.938;7.286;2024-01-25T00:02:59;50.95;;;7.85;;
34497;SDS011;20744;50.938;7.286;2024-01-25T00:05:26;56.55;;;8.52;;
34497;SDS011;20744;50.938;7.286;2024-01-25T00:07:53;45.80;;;7.95;;
34497;SDS011;20744;50.938;7.286;2024-01-25T00:10:21;53.90;;;7.95;;
34497;SDS011;20744;50.938;7.286;2024-01-25T00:12:48;54.83;;;7.45;;
34497;SDS011;20744;50.938;7.286;2024-01-25T00:15:17;55.15;;;8.30;;
34497;SDS011;20744;50.938;7.286;2024-01-25T00:17:44;55.20;;;7.93;;
34497;SDS011;20744;50.938;7.286;2024-01-25T00:20:12;52.03;;;8.00;;
34497;SDS011;20744;50.938;7.286;2024-01-25T00:22:39;53.28;;;8.77;;
34497;SDS011;20744;50.938;7.286;2024-01-25T00:25:09;47.40;;;7.97;;
34497;SDS011;20744;50.938;7.286;2024-01-25T00:27:36;56.30;;;8.27;;
34497;SDS011;20744;50.938;7.286;2024-01-25T00:30:04;52.60;;;7.60;;
34497;SDS011;20744;50.938;7.286;2024-01-25T00:32:33;51.03;;;7.57;;
34497;SDS011;20744;50.938;7.286;2024-01-25T00:35:01;45.90;;;7.80;;
34497;SDS011;20744;50.938;7.286;2024-01-25T00:37:29;54.40;;;8.35;;
34497;SDS011;20744;50.938;7.286;2024-01-25T00:39:56;56.05;;;8.10;;
34497;SDS011;20744;50.938;7.286;2024-01-25T00:42:24;56.00;;;8.30;;
34497;SDS011;20744;50.938;7.286;2024-01-25T00:44:58;44.70;;;7.32;;
34497;SDS011;20744;50.938;7.286;2024-01-25T00:47:27;60.75;;;8.90;;
34497;SDS011;20744;50.938;7.286;2024-01-25T00:49:56;55.88;;;8.48;;
34497;SDS011;20744;50.938;7.286;2024-01-25T00:52:23;51.95;;;7.10;;
34497;SDS011;20744;50.938;7.286;2024-01-25T00:54:51;50.92;;;8.13;;
34497;SDS011;20744;50.938;7.286;2024-01-25T00:57:18;55.30;;;8.23;;
34497;SDS011;20744;50.938;7.286;2024-01-25T00:59:46;47.75;;;8.23;;
34497;SDS011;20744;50.938;7.286;2024-01-25T01:02:14;53.58;;;7.80;;
34497;SDS011;20744;50.938;7.286;2024-01-25T01:04:41;49.75;;;8.30;;
34497;SDS011;20744;50.938;7.286;2024-01-25T01:07:10;54.00;;;8.80;;
34497;SDS011;20744;50.938;7.286;2024-01-25T01:09:38;54.72;;;7.80;;
34497;SDS011;20744;50.938;7.286;2024-01-25T01:12:06;48.90;;;8.20;;
34497;SDS011;20744;50.938;7.286;2024-01-25T01:14:33;55.67;;;9.90;;
34497;SDS011;20744;50.938;7.286;2024-01-25T01:17:01;56.17;;;8.63;;
34497;SDS011;20744;50.938;7.286;2024-01-25T01:19:28;55.47;;;8.00;;
34497;SDS011;20744;50.938;7.286;2024-01-25T01:21:56;55.70;;;8.55;;
34497;SDS011;20744;50.938;7.286;2024-01-25T01:24:25;51.30;;;7.85;;
34497;SDS011;20744;50.938;7.286;2024-01-25T01:26:52;57.10;;;8.20;;
34497;SDS011;20744;50.938;7.286;2024-01-25T01:29:22;55.00;;;9.13;;
34497;SDS011;20744;50.938;7.286;2024-01-25T01:31:49;50.15;;;7.63;;
34497;SDS011;20744;50.938;7.286;2024-01-25T01:34:17;48.25;;;7.82;;
34497;SDS011;20744;50.938;7.286;2024-01-25T01:36:47;64.60;;;7.88;;
34497;SDS011;20744;50.938;7.286;2024-01-25T01:39:14;50.53;;;8.25;;
34497;SDS011;20744;50.938;7.286;2024-01-25T01:41:46;50.92;;;7.97;;
34497;SDS011;20744;50.938;7.286;2024-01-25T01:44:13;49.47;;;8.00;;
34497;SDS011;20744;50.938;7.286;2024-01-25T01:46:40;50.53;;;8.20;;
34497;SDS011;20744;50.938;7.286;2024-01-25T01:49:08;44.53;;;7.70;;
34497;SDS011;20744;50.938;7.286;2024-01-25T01:51:38;61.30;;;8.82;;
34497;SDS011;20744;50.938;7.286;2024-01-25T01:54:06;50.72;;;8.43;;
34497;SDS011;20744;50.938;7.286;2024-01-25T01:56:34;54.38;;;9.13;;
34497;SDS011;20744;50.938;7.286;2024-01-25T01:59:04;61.88;;;8.82;;
34497;SDS011;20744;50.938;7.286;2024-01-25T02:01:32;46.38;;;7.82;;
34497;SDS011;20744;50.938;7.286;2024-01-25T02:04:02;55.88;;;8.30;;
34497;SDS011;20744;50.938;7.286;2024-01-25T02:06:29;52.88;;;7.50;;
34497;SDS011;20744;50.938;7.286;2024-01-25T02:08:56;48.47;;;8.30;;
34497;SDS011;20744;50.938;7.286;2024-01-25T02:11:24;51.58;;;8.57;;
34497;SDS011;20744;50.938;7.286;2024-01-25T02:13:51;57.00;;;9.02;;
34497;SDS011;20744;50.938;7.286;2024-01-25T02:16:21;58.83;;;8.50;;
34497;SDS011;20744;50.938;7.286;2024-01-25T02:18:49;49.17;;;8.07;;
34497;SDS011;20744;50.938;7.286;2024-01-25T02:21:19;52.83;;;8.00;;
34497;SDS011;20744;50.938;7.286;2024-01-25T02:23:48;50.08;;;8.23;;
34497;SDS011;20744;50.938;7.286;2024-01-25T02:26:15;52.38;;;7.95;;
34497;SDS011;20744;50.938;7.286;2024-01-25T02:28:42;41.28;;;7.07;;
34497;SDS011;20744;50.938;7.286;2024-01-25T02:31:10;61.60;;;8.60;;
34497;SDS011;20744;50.938;7.286;2024-01-25T02:33:37;54.53;;;7.32;;
34497;SDS011;20744;50.938;7.286;2024-01-25T02:36:05;56.20;;;8.05;;
34497;SDS011;20744;50.938;7.286;2024-01-25T02:38:32;52.42;;;8.10;;
34497;SDS011;20744;50.938;7.286;2024-01-25T02:41:01;53.70;;;8.73;;
34497;SDS011;20744;50.938;7.286;2024-01-25T02:43:30;66.13;;;8.00;;
34497;SDS011;20744;50.938;7.286;2024-01-25T02:45:57;57.00;;;7.75;;
34497;SDS011;20744;50.938;7.286;2024-01-25T02:48:25;48.63;;;7.65;;
34497;SDS011;20744;50.938;7.286;2024-01-25T02:50:52;48.47;;;7.80;;
34497;SDS011;20744;50.938;7.286;2024-01-25T02:53:19;51.63;;;7.13;;
34497;SDS011;20744;50.938;7.286;2024-01-25T02:55:47;46.97;;;7.50;;
34497;SDS011;20744;50.938;7.286;2024-01-25T02:58:15;52.28;;;7.55;;
34497;SDS011;20744;50.938;7.286;2024-01-25T03:00:43;53.95;;;8.48;;
34497;SDS011;20744;50.938;7.286;2024-01-25T03:03:10;51.05;;;8.75;;
34497;SDS011;20744;50.938;7.286;2024-01-25T03:05:37;57.15;;;7.45;;
34497;SDS011;20744;50.938;7.286;2024-01-25T03:08:05;52.28;;;8.20;;
34497;SDS011;20744;50.938;7.286;2024-01-25T03:10:32;64.60;;;7.65;;
34497;SDS011;20744;50.938;7.286;2024-01-25T03:13:00;59.53;;;8.77;;
34497;SDS011;20744;50.938;7.286;2024-01-25T03:15:29;60.50;;;7.88;;
34497;SDS011;20744;50.938;7.286;2024-01-25T03:17:56;53.08;;;7.53;;
34497;SDS011;20744;50.938;7.286;2024-01-25T03:20:23;45.10;;;7.32;;
34497;SDS011;20744;50.938;7.286;2024-01-25T03:22:50;55.30;;;8.70;;
34497;SDS011;20744;50.938;7.286;2024-01-25T03:25:18;57.75;;;8.35;;
34497;SDS011;20744;50.938;7.286;2024-01-25T03:27:45;41.08;;;7.30;;
34497;SDS011;20744;50.938;7.286;2024-01-25T03:30:12;61.03;;;9.23;;
34497;SDS011;20744;50.938;7.286;2024-01-25T03:32:41;45.47;;;7.80;;
34497;SDS011;20744;50.938;7.286;2024-01-25T03:35:08;46.03;;;8.55;;
34497;SDS011;20744;50.938;7.286;2024-01-25T03:37:36;49.58;;;7.75;;
34497;SDS011;20744;50.938;7.286;2024-01-25T03:40:03;59.83;;;7.03;;
34497;SDS011;20744;50.938;7.286;2024-01-25T03:42:31;53.42;;;8.40;;
34497;SDS011;20744;50.938;7.286;2024-01-25T03:44:58;51.17;;;8.15;;
34497;SDS011;20744;50.938;7.286;2024-01-25T03:47:25;55.05;;;7.82;;
34497;SDS011;20744;50.938;7.286;2024-01-25T03:49:54;51.92;;;7.40;;
34497;SDS011;20744;50.938;7.286;2024-01-25T03:52:21;61.63;;;8.65;;
34497;SDS011;20744;50.938;7.286;2024-01-25T03:54:49;61.20;;;8.10;;
34497;SDS011;20744;50.938;7.286;2024-01-25T03:57:16;55.28;;;9.30;;
34497;SDS011;20744;50.938;7.286;2024-01-25T03:59:43;52.80;;;8.55;;
34497;SDS011;20744;50.938;7.286;2024-01-25T04:02:10;57.92;;;7.28;;
34497;SDS011;20744;50.938;7.286;2024-01-25T04:04:38;57.63;;;7.82;;
34497;SDS011;20744;50.938;7.286;2024-01-25T04:07:06;59.55;;;9.23;;
34497;SDS011;20744;50.938;7.286;2024-01-25T04:09:34;53.60;;;7.90;;
34497;SDS011;20744;50.938;7.286;2024-01-25T04:12:01;58.13;;;7.22;;
34497;SDS011;20744;50.938;7.286;2024-01-25T04:14:28;61.30;;;9.00;;
34497;SDS011;20744;50.938;7.286;2024-01-25T04:16:56;57.40;;;7.95;;
34497;SDS011;20744;50.938;7.286;2024-01-25T04:19:24;50.15;;;8.68;;
34497;SDS011;20744;50.938;7.286;2024-01-25T04:21:51;53.33;;;8.70;;
34497;SDS011;20744;50.938;7.286;2024-01-25T04:24:20;60.92;;;8.63;;
34497;SDS011;20744;50.938;7.286;2024-01-25T04:26:47;52.15;;;7.80;;
34497;SDS011;20744;50.938;7.286;2024-01-25T04:29:14;57.05;;;8.85;;
34497;SDS011;20744;50.938;7.286;2024-01-25T04:31:42;52.67;;;8.40;;
34497;SDS011;20744;50.938;7.286;2024-01-25T04:34:10;59.10;;;7.80;;
34497;SDS011;20744;50.938;7.286;2024-01-25T04:36:37;50.20;;;7.68;;
34497;SDS011;20744;50.938;7.286;2024-01-25T04:39:05;70.53;;;9.27;;
34497;SDS011;20744;50.938;7.286;2024-01-25T04:41:34;57.53;;;8.00;;
34497;SDS011;20744;50.938;7.286;2024-01-25T04:44:01;55.78;;;8.30;;
34497;SDS011;20744;50.938;7.286;2024-01-25T04:46:29;54.30;;;8.60;;
34497;SDS011;20744;50.938;7.286;2024-01-25T04:49:00;49.67;;;8.25;;
34497;SDS011;20744;50.938;7.286;2024-01-25T04:51:28;55.63;;;8.38;;
34497;SDS011;20744;50.938;7.286;2024-01-25T04:53:55;71.68;;;8.43;;
34497;SDS011;20744;50.938;7.286;2024-01-25T04:56:22;47.15;;;7.68;;
34497;SDS011;20744;50.938;7.286;2024-01-25T04:58:51;53.35;;;8.57;;
34497;SDS011;20744;50.938;7.286;2024-01-25T05:01:18;62.75;;;8.93;;
34497;SDS011;20744;50.938;7.286;2024-01-25T05:03:45;48.20;;;7.47;;
34497;SDS011;20744;50.938;7.286;2024-01-25T05:06:13;56.65;;;8.15;;
34497;SDS011;20744;50.938;7.286;2024-01-25T05:08:41;57.28;;;8.65;;
34497;SDS011;20744;50.938;7.286;2024-01-25T05:11:08;50.63;;;8.30;;
34497;SDS011;20744;50.938;7.286;2024-01-25T05:13:35;51.13;;;7.18;;
34497;SDS011;20744;50.938;7.286;2024-01-25T05:16:04;51.50;;;8.50;;
34497;SDS011;20744;50.938;7.286;2024-01-25T05:18:32;55.40;;;7.35;;
34497;SDS011;20744;50.938;7.286;2024-01-25T05:20:59;56.55;;;8.90;;
34497;SDS011;20744;50.938;7.286;2024-01-25T05:23:26;61.55;;;8.48;;
34497;SDS011;20744;50.938;7.286;2024-01-25T05:25:54;67.05;;;9.20;;
34497;SDS011;20744;50.938;7.286;2024-01-25T05:28:21;68.80;;;9.00;;
34497;SDS011;20744;50.938;7.286;2024-01-25T05:30:49;60.08;;;8.85;;
34497;SDS011;20744;50.938;7.286;2024-01-25T05:33:18;69.05;;;8.68;;
34497;SDS011;20744;50.938;7.286;2024-01-25T05:35:45;69.05;;;9.38;;
34497;SDS011;20744;50.938;7.286;2024-01-25T05:38:12;74.75;;;10.05;;
34497;SDS011;20744;50.938;7.286;2024-01-25T05:40:40;55.20;;;8.50;;
34497;SDS011;20744;50.938;7.286;2024-01-25T05:43:07;61.53;;;8.95;;
34497;SDS011;20744;50.938;7.286;2024-01-25T05:45:34;59.45;;;8.40;;
34497;SDS011;20744;50.938;7.286;2024-01-25T05:48:02;61.67;;;8.93;;
34497;SDS011;20744;50.938;7.286;2024-01-25T05:50:31;59.55;;;9.50;;
34497;SDS011;20744;50.938;7.286;2024-01-25T05:52:58;70.55;;;11.00;;
34497;SDS011;20744;50.938;7.286;2024-01-25T05:55:25;70.53;;;9.88;;
34497;SDS011;20744;50.938;7.286;2024-01-25T05:57:53;74.32;;;10.73;;
34497;SDS011;20744;50.938;7.286;2024-01-25T06:00:20;59.45;;;9.70;;
34497;SDS011;20744;50.938;7.286;2024-01-25T06:02:48;72.90;;;10.02;;
34497;SDS011;20744;50.938;7.286;2024-01-25T06:05:15;69.25;;;10.10;;
34497;SDS011;20744;50.938;7.286;2024-01-25T06:07:44;57.90;;;9.73;;
34497;SDS011;20744;50.938;7.286;2024-01-25T06:10:11;70.25;;;9.52;;
34497;SDS011;20744;50.938;7.286;2024-01-25T06:12:38;74.75;;;9.88;;
34497;SDS011;20744;50.938;7.286;2024-01-25T06:15:06;64.28;;;9.07;;
34497;SDS011;20744;50.938;7.286;2024-01-25T06:17:33;61.05;;;9.48;;
34497;SDS011;20744;50.938;7.286;2024-01-25T06:20:01;64.55;;;9.45;;
34497;SDS011;20744;50.938;7.286;2024-01-25T06:22:30;60.72;;;8.35;;
34497;SDS011;20744;50.938;7.286;2024-01-25T06:24:58;55.97;;;8.45;;
34497;SDS011;20744;50.938;7.286;2024-01-25T06:27:30;62.00;;;10.15;;
34497;SDS011;20744;50.938;7.286;2024-01-25T06:29:57;47.63;;;8.10;;
34497;SDS011;20744;50.938;7.286;2024-01-25T06:32:25;62.50;;;7.75;;
34497;SDS011;20744;50.938;7.286;2024-01-25T06:34:52;58.83;;;8.40;;
34497;SDS011;20744;50.938;7.286;2024-01-25T06:37:19;57.25;;;8.98;;
34497;SDS011;20744;50.938;7.286;2024-01-25T06:39:47;65.45;;;10.02;;
34497;SDS011;20744;50.938;7.286;2024-01-25T06:42:15;66.68;;;9.98;;
34497;SDS011;20744;50.938;7.286;2024-01-25T06:44:44;51.70;;;9.00;;
34497;SDS011;20744;50.938;7.286;2024-01-25T06:47:11;51.00;;;9.18;;
34497;SDS011;20744;50.938;7.286;2024-01-25T06:49:39;58.80;;;8.90;;
34497;SDS011;20744;50.938;7.286;2024-01-25T06:52:06;55.88;;;9.18;;
34497;SDS011;20744;50.938;7.286;2024-01-25T06:54:33;59.92;;;10.02;;
34497;SDS011;20744;50.938;7.286;2024-01-25T06:57:01;56.40;;;8.00;;
34497;SDS011;20744;50.938;7.286;2024-01-25T06:59:30;42.50;;;9.18;;
34497;SDS011;20744;50.938;7.286;2024-01-25T07:01:57;62.25;;;9.48;;
34497;SDS011;20744;50.938;7.286;2024-01-25T07:04:25;54.17;;;8.43;;
34497;SDS011;20744;50.938;7.286;2024-01-25T07:06:52;63.63;;;9.18;;
34497;SDS011;20744;50.938;7.286;2024-01-25T07:09:20;51.13;;;8.85;;
34497;SDS011;20744;50.938;7.286;2024-01-25T07:11:47;48.03;;;8.57;;
34497;SDS011;20744;50.938;7.286;2024-01-25T07:14:14;50.72;;;8.82;;
34497;SDS011;20744;50.938;7.286;2024-01-25T07:16:43;51.55;;;10.35;;
34497;SDS011;20744;50.938;7.286;2024-01-25T07:19:10;59.60;;;8.95;;
34497;SDS011;20744;50.938;7.286;2024-01-25T07:21:41;54.20;;;8.63;;
34497;SDS011;20744;50.938;7.286;2024-01-25T07:24:10;69.88;;;9.85;;
34497;SDS011;20744;50.938;7.286;2024-01-25T07:26:38;60.00;;;8.95;;
34497;SDS011;20744;50.938;7.286;2024-01-25T07:29:05;58.20;;;10.80;;
34497;SDS011;20744;50.938;7.286;2024-01-25T07:31:33;49.63;;;8.70;;
34497;SDS011;20744;50.938;7.286;2024-01-25T07:34:02;57.17;;;9.05;;
34497;SDS011;20744;50.938;7.286;2024-01-25T07:36:30;52.63;;;8.57;;
34497;SDS011;20744;50.938;7.286;2024-01-25T07:38:57;65.10;;;9.98;;
34497;SDS011;20744;50.938;7.286;2024-01-25T07:41:24;46.05;;;7.47;;
34497;SDS011;20744;50.938;7.286;2024-01-25T07:43:52;53.17;;;8.82;;
34497;SDS011;20744;50.938;7.286;2024-01-25T07:46:20;52.17;;;8.65;;
34497;SDS011;20744;50.938;7.286;2024-01-25T07:48:49;52.17;;;8.55;;
34497;SDS011;20744;50.938;7.286;2024-01-25T07:51:17;58.08;;;9.30;;
34497;SDS011;20744;50.938;7.286;2024-01-25T07:53:45;62.85;;;10.20;;
34497;SDS011;20744;50.938;7.286;2024-01-25T07:56:13;57.95;;;8.82;;
34497;SDS011;20744;50.938;7.286;2024-01-25T07:58:40;68.72;;;10.95;;
34497;SDS011;20744;50.938;7.286;2024-01-25T08:01:07;59.08;;;10.38;;
34497;SDS011;20744;50.938;7.286;2024-01-25T08:03:35;65.85;;;11.05;;
34497;SDS011;20744;50.938;7.286;2024-01-25T08:06:02;75.93;;;11.32;;
34497;SDS011;20744;50.938;7.286;2024-01-25T08:08:31;72.07;;;11.82;;
34497;SDS011;20744;50.938;7.286;2024-01-25T08:10:58;67.00;;;11.77;;
34497;SDS011;20744;50.938;7.286;2024-01-25T08:13:26;60.72;;;11.55;;
34497;SDS011;20744;50.938;7.286;2024-01-25T08:15:53;84.60;;;12.80;;
34497;SDS011;20744;50.938;7.286;2024-01-25T08:18:21;80.47;;;14.18;;
34497;SDS011;20744;50.938;7.286;2024-01-25T08:20:49;94.18;;;14.07;;
34497;SDS011;20744;50.938;7.286;2024-01-25T08:23:17;79.75;;;13.18;;
34497;SDS011;20744;50.938;7.286;2024-01-25T08:25:49;80.60;;;12.68;;
34497;SDS011;20744;50.938;7.286;2024-01-25T08:28:16;72.45;;;13.30;;
34497;SDS011;20744;50.938;7.286;2024-01-25T08:30:44;84.20;;;13.32;;
34497;SDS011;20744;50.938;7.286;2024-01-25T08:33:12;76.07;;;12.55;;
34497;SDS011;20744;50.938;7.286;2024-01-25T08:35:40;74.00;;;12.25;;
34497;SDS011;20744;50.938;7.286;2024-01-25T08:38:07;95.35;;;13.90;;
34497;SDS011;20744;50.938;7.286;2024-01-25T08:40:37;75.32;;;13.18;;
34497;SDS011;20744;50.938;7.286;2024-01-25T08:43:06;75.07;;;12.45;;
34497;SDS011;20744;50.938;7.286;2024-01-25T08:45:33;95.63;;;16.00;;
34497;SDS011;20744;50.938;7.286;2024-01-25T08:48:02;67.97;;;12.90;;
34497;SDS011;20744;50.938;7.286;2024-01-25T08:50:29;80.10;;;13.15;;
34497;SDS011;20744;50.938;7.286;2024-01-25T08:52:56;78.25;;;13.75;;
34497;SDS011;20744;50.938;7.286;2024-01-25T08:55:24;76.20;;;14.35;;
34497;SDS011;20744;50.938;7.286;2024-01-25T08:57:52;83.82;;;14.98;;
34497;SDS011;20744;50.938;7.286;2024-01-25T09:00:22;90.13;;;14.77;;
34497;SDS011;20744;50.938;7.286;2024-01-25T09:02:49;91.20;;;16.45;;
34497;SDS011;20744;50.938;7.286;2024-01-25T09:05:16;74.25;;;16.45;;
34497;SDS011;20744;50.938;7.286;2024-01-25T09:07:44;80.18;;;17.25;;
34497;SDS011;20744;50.938;7.286;2024-01-25T09:10:12;82.90;;;17.13;;
34497;SDS011;20744;50.938;7.286;2024-01-25T09:12:40;80.18;;;16.05;;
34497;SDS011;20744;50.938;7.286;2024-01-25T09:15:07;80.35;;;17.73;;
34497;SDS011;20744;50.938;7.286;2024-01-25T09:17:36;83.88;;;17.77;;
34497;SDS011;20744;50.938;7.286;2024-01-25T09:20:04;89.65;;;16.90;;
34497;SDS011;20744;50.938;7.286;2024-01-25T09:22:31;83.43;;;17.58;;
34497;SDS011;20744;50.938;7.286;2024-01-25T09:24:59;74.75;;;15.77;;
34497;SDS011;20744;50.938;7.286;2024-01-25T09:27:26;70.82;;;16.90;;
34497;SDS011;20744;50.938;7.286;2024-01-25T09:29:53;70.90;;;14.73;;
34497;SDS011;20744;50.938;7.286;2024-01-25T09:32:21;75.50;;;14.73;;
34497;SDS011;20744;50.938;7.286;2024-01-25T09:34:49;65.82;;;14.55;;
34497;SDS011;20744;50.938;7.286;2024-01-25T09:37:17;73.75;;;15.20;;
34497;SDS011;20744;50.938;7.286;2024-01-25T09:39:45;74.18;;;14.45;;
34497;SDS011;20744;50.938;7.286;2024-01-25T09:42:12;63.55;;;13.68;;
34497;SDS011;20744;50.938;7.286;2024-01-25T09:44:40;83.00;;;15.63;;
34497;SDS011;20744;50.938;7.286;2024-01-25T09:47:08;69.22;;;14.00;;
34497;SDS011;20744;50.938;7.286;2024-01-25T09:49:36;80.72;;;15.23;;
34497;SDS011;20744;50.938;7.286;2024-01-25T09:52:05;67.60;;;16.33;;
34497;SDS011;20744;50.938;7.286;2024-01-25T09:54:33;62.88;;;14.57;;
34497;SDS011;20744;50.938;7.286;2024-01-25T09:57:01;80.30;;;15.15;;
34497;SDS011;20744;50.938;7.286;2024-01-25T09:59:30;52.97;;;14.13;;
34497;SDS011;20744;50.938;7.286;2024-01-25T10:01:57;59.53;;;15.07;;
34497;SDS011;20744;50.938;7.286;2024-01-25T10:04:26;71.93;;;15.15;;
34497;SDS011;20744;50.938;7.286;2024-01-25T10:06:55;67.82;;;14.43;;
34497;SDS011;20744;50.938;7.286;2024-01-25T10:09:24;66.00;;;14.80;;
34497;SDS011;20744;50.938;7.286;2024-01-25T10:11:52;62.53;;;14.93;;
34497;SDS011;20744;50.938;7.286;2024-01-25T10:14:19;55.78;;;14.20;;
34497;SDS011;20744;50.938;7.286;2024-01-25T10:16:47;75.28;;;15.05;;
34497;SDS011;20744;50.938;7.286;2024-01-25T10:19:15;72.55;;;15.68;;
34497;SDS011;20744;50.938;7.286;2024-01-25T10:21:42;63.08;;;14.65;;
34497;SDS011;20744;50.938;7.286;2024-01-25T10:24:11;74.32;;;14.00;;
34497;SDS011;20744;50.938;7.286;2024-01-25T10:26:40;70.30;;;14.05;;
34497;SDS011;20744;50.938;7.286;2024-01-25T10:29:08;62.70;;;14.65;;
34497;SDS011;20744;50.938;7.286;2024-01-25T10:31:36;65.32;;;14.88;;
34497;SDS011;20744;50.938;7.286;2024-01-25T10:34:05;54.92;;;12.88;;
34497;SDS011;20744;50.938;7.286;2024-01-25T10:36:34;56.72;;;12.82;;
34497;SDS011;20744;50.938;7.286;2024-01-25T10:39:03;60.25;;;13.73;;
34497;SDS011;20744;50.938;7.286;2024-01-25T10:41:32;61.80;;;13.65;;
34497;SDS011;20744;50.938;7.286;2024-01-25T10:44:02;60.08;;;13.52;;
34497;SDS011;20744;50.938;7.286;2024-01-25T10:46:31;51.85;;;13.20;;
34497;SDS011;20744;50.938;7.286;2024-01-25T10:48:59;57.78;;;12.93;;
34497;SDS011;20744;50.938;7.286;2024-01-25T10:51:27;58.95;;;13.35;;
34497;SDS011;20744;50.938;7.286;2024-01-25T10:53:54;60.90;;;13.52;;
34497;SDS011;20744;50.938;7.286;2024-01-25T10:56:23;62.50;;;12.43;;
34497;SDS011;20744;50.938;7.286;2024-01-25T10:58:51;55.78;;;12.32;;
34497;SDS011;20744;50.938;7.286;2024-01-25T11:01:19;68.38;;;12.13;;
34497;SDS011;20744;50.938;7.286;2024-01-25T11:03:48;48.25;;;12.13;;
34497;SDS011;20744;50.938;7.286;2024-01-25T11:06:16;65.18;;;11.70;;
34497;SDS011;20744;50.938;7.286;2024-01-25T11:08:47;61.97;;;12.13;;
34497;SDS011;20744;50.938;7.286;2024-01-25T11:11:14;58.58;;;11.00;;
34497;SDS011;20744;50.938;7.286;2024-01-25T11:13:42;52.50;;;11.70;;
34497;SDS011;20744;50.938;7.286;2024-01-25T11:16:13;54.28;;;11.63;;
34497;SDS011;20744;50.938;7.286;2024-01-25T11:18:51;57.90;;;12.30;;
34497;SDS011;20744;50.938;7.286;2024-01-25T11:21:22;48.08;;;10.45;;
34497;SDS011;20744;50.938;7.286;2024-01-25T11:23:58;52.17;;;10.02;;
34497;SDS011;20744;50.938;7.286;2024-01-25T11:26:25;45.22;;;8.95;;
34497;SDS011;20744;50.938;7.286;2024-01-25T11:28:54;46.92;;;9.95;;
34497;SDS011;20744;50.938;7.286;2024-01-25T11:31:22;46.42;;;9.27;;
34497;SDS011;20744;50.938;7.286;2024-01-25T11:33:51;56.17;;;10.07;;
34497;SDS011;20744;50.938;7.286;2024-01-25T11:36:20;37.25;;;9.23;;
34497;SDS011;20744;50.938;7.286;2024-01-25T11:38:48;60.35;;;10.35;;
34497;SDS011;20744;50.938;7.286;2024-01-25T11:41:16;53.58;;;10.68;;
34497;SDS011;20744;50.938;7.286;2024-01-25T11:43:43;52.60;;;11.73;;
34497;SDS011;20744;50.938;7.286;2024-01-25T11:46:10;56.03;;;11.40;;
34497;SDS011;20744;50.938;7.286;2024-01-25T11:48:39;50.00;;;10.50;;
34497;SDS011;20744;50.938;7.286;2024-01-25T11:51:07;44.42;;;10.63;;
34497;SDS011;20744;50.938;7.286;2024-01-25T11:53:36;50.28;;;10.95;;
34497;SDS011;20744;50.938;7.286;2024-01-25T11:56:07;54.17;;;11.27;;
34497;SDS011;20744;50.938;7.286;2024-01-25T11:58:39;47.50;;;10.15;;
34497;SDS011;20744;50.938;7.286;2024-01-25T12:01:07;45.33;;;9.55;;
34497;SDS011;20744;50.938;7.286;2024-01-25T12:03:35;45.95;;;10.13;;
34497;SDS011;20744;50.938;7.286;2024-01-25T12:06:02;40.85;;;9.63;;
34497;SDS011;20744;50.938;7.286;2024-01-25T12:08:32;47.40;;;10.32;;
34497;SDS011;20744;50.938;7.286;2024-01-25T12:11:03;47.20;;;10.30;;
34497;SDS011;20744;50.938;7.286;2024-01-25T12:13:31;34.17;;;9.18;;
34497;SDS011;20744;50.938;7.286;2024-01-25T12:16:01;50.03;;;9.85;;
34497;SDS011;20744;50.938;7.286;2024-01-25T12:18:29;50.42;;;9.57;;
34497;SDS011;20744;50.938;7.286;2024-01-25T12:20:58;39.42;;;9.23;;
34497;SDS011;20744;50.938;7.286;2024-01-25T12:23:33;46.85;;;9.57;;
34497;SDS011;20744;50.938;7.286;2024-01-25T12:26:01;42.55;;;10.05;;
34497;SDS011;20744;50.938;7.286;2024-01-25T12:28:29;53.10;;;10.38;;
34497;SDS011;20744;50.938;7.286;2024-01-25T12:30:57;47.15;;;10.32;;
34497;SDS011;20744;50.938;7.286;2024-01-25T12:33:25;35.20;;;8.70;;
34497;SDS011;20744;50.938;7.286;2024-01-25T12:35:52;42.03;;;8.80;;
34497;SDS011;20744;50.938;7.286;2024-01-25T12:38:20;38.25;;;7.60;;
34497;SDS011;20744;50.938;7.286;2024-01-25T12:40:48;44.45;;;8.07;;
34497;SDS011;20744;50.938;7.286;2024-01-25T12:43:16;45.72;;;8.70;;
34497;SDS011;20744;50.938;7.286;2024-01-25T12:45:44;44.00;;;9.43;;
34497;SDS011;20744;50.938;7.286;2024-01-25T12:48:12;42.97;;;9.48;;
34497;SDS011;20744;50.938;7.286;2024-01-25T12:50:39;48.72;;;9.82;;
34497;SDS011;20744;50.938;7.286;2024-01-25T12:53:06;45.28;;;9.52;;
34497;SDS011;20744;50.938;7.286;2024-01-25T12:55:34;48.72;;;9.30;;
34497;SDS011;20744;50.938;7.286;2024-01-25T12:58:03;48.63;;;8.98;;
34497;SDS011;20744;50.938;7.286;2024-01-25T13:00:30;45.97;;;7.95;;
34497;SDS011;20744;50.938;7.286;2024-01-25T13:02:58;41.22;;;7.78;;
34497;SDS011;20744;50.938;7.286;2024-01-25T13:05:26;36.45;;;6.93;;
34497;SDS011;20744;50.938;7.286;2024-01-25T13:07:54;30.30;;;6.28;;
34497;SDS011;20744;50.938;7.286;2024-01-25T13:10:22;38.78;;;6.30;;
34497;SDS011;20744;50.938;7.286;2024-01-25T13:12:49;30.13;;;5.97;;
34497;SDS011;20744;50.938;7.286;2024-01-25T13:15:18;35.92;;;6.93;;
34497;SDS011;20744;50.938;7.286;2024-01-25T13:17:45;37.90;;;6.38;;
34497;SDS011;20744;50.938;7.286;2024-01-25T13:20:12;27.48;;;5.20;;
34497;SDS011;20744;50.938;7.286;2024-01-25T13:22:40;29.52;;;6.20;;
34497;SDS011;20744;50.938;7.286;2024-01-25T13:25:08;33.97;;;6.50;;
34497;SDS011;20744;50.938;7.286;2024-01-25T13:27:37;34.28;;;6.00;;
34497;SDS011;20744;50.938;7.286;2024-01-25T13:30:05;32.58;;;5.72;;
34497;SDS011;20744;50.938;7.286;2024-01-25T13:32:33;40.40;;;5.97;;
34497;SDS011;20744;50.938;7.286;2024-01-25T13:35:01;37.22;;;6.05;;
34497;SDS011;20744;50.938;7.286;2024-01-25T13:37:28;37.47;;;6.88;;
34497;SDS011;20744;50.938;7.286;2024-01-25T13:39:55;32.47;;;6.47;;
34497;SDS011;20744;50.938;7.286;2024-01-25T13:42:23;31.33;;;5.72;;
34497;SDS011;20744;50.938;7.286;2024-01-25T13:44:50;37.50;;;5.90;;
34497;SDS011;20744;50.938;7.286;2024-01-25T13:47:20;41.08;;;6.45;;
34497;SDS011;20744;50.938;7.286;2024-01-25T13:49:51;37.35;;;6.55;;
34497;SDS011;20744;50.938;7.286;2024-01-25T13:52:19;33.90;;;6.60;;
34497;SDS011;20744;50.938;7.286;2024-01-25T13:54:47;40.50;;;7.20;;
34497;SDS011;20744;50.938;7.286;2024-01-25T13:57:15;38.30;;;5.25;;
34497;SDS011;20744;50.938;7.286;2024-01-25T13:59:42;31.90;;;6.35;;
34497;SDS011;20744;50.938;7.286;2024-01-25T14:02:09;30.20;;;5.60;;
34497;SDS011;20744;50.938;7.286;2024-01-25T14:04:37;33.00;;;6.07;;
34497;SDS011;20744;50.938;7.286;2024-01-25T14:07:06;29.95;;;5.63;;
34497;SDS011;20744;50.938;7.286;2024-01-25T14:09:33;29.48;;;5.72;;
34497;SDS011;20744;50.938;7.286;2024-01-25T14:12:03;40.17;;;5.85;;
34497;SDS011;20744;50.938;7.286;2024-01-25T14:14:30;40.50;;;5.60;;
34497;SDS011;20744;50.938;7.286;2024-01-25T14:16:58;31.75;;;5.22;;
34497;SDS011;20744;50.938;7.286;2024-01-25T14:19:26;30.90;;;5.40;;
34497;SDS011;20744;50.938;7.286;2024-01-25T14:21:54;31.27;;;6.20;;
34497;SDS011;20744;50.938;7.286;2024-01-25T14:24:22;35.45;;;5.97;;
34497;SDS011;20744;50.938;7.286;2024-01-25T14:26:50;33.25;;;6.15;;
34497;SDS011;20744;50.938;7.286;2024-01-25T14:29:17;34.72;;;5.13;;
34497;SDS011;20744;50.938;7.286;2024-01-25T14:31:44;34.22;;;5.80;;
34497;SDS011;20744;50.938;7.286;2024-01-25T14:34:14;33.78;;;6.13;;